createdAt,value
2017-12-16T00:01:56.344Z,96886.14
2017-12-16T00:04:23.828Z,96888.73
2017-12-16T00:06:51.279Z,96895.36
2017-12-16T00:09:19.646Z,96893.70
2017-12-16T00:11:47.093Z,96890.22
2017-12-16T00:14:14.547Z,96889.34
2017-12-16T00:16:42.333Z,96893.00
2017-12-16T00:19:09.781Z,96891.80
2017-12-16T00:21:37.234Z,96897.20
2017-12-16T00:24:05.033Z,96908.39
2017-12-16T00:26:32.487Z,96907.13
2017-12-16T00:28:59.926Z,96914.53
2017-12-16T00:31:27.738Z,96912.46
2017-12-16T00:33:55.193Z,96906.58
2017-12-16T00:36:22.641Z,96909.58
2017-12-16T00:38:50.397Z,96904.67
2017-12-16T00:41:17.845Z,96908.91
2017-12-16T00:43:45.299Z,96916.92
2017-12-16T00:46:13.086Z,96921.44
2017-12-16T00:48:40.934Z,96925.41
2017-12-16T00:51:08.381Z,96926.84
2017-12-16T00:53:36.389Z,96933.26
2017-12-16T00:56:03.836Z,96933.94
2017-12-16T00:58:31.283Z,96932.61
2017-12-16T01:00:59.699Z,96927.81
2017-12-16T01:03:27.165Z,96933.41
2017-12-16T01:05:54.629Z,96935.69
2017-12-16T01:08:22.374Z,96939.09
2017-12-16T01:10:49.825Z,96950.92
2017-12-16T01:13:17.302Z,96955.46
2017-12-16T01:15:45.058Z,96950.20
2017-12-16T01:18:12.519Z,96957.56
2017-12-16T01:20:39.976Z,96961.29
2017-12-16T01:23:08.055Z,96967.93
2017-12-16T01:25:35.504Z,96971.59
2017-12-16T01:28:04.675Z,96967.45
2017-12-16T01:30:32.590Z,96968.56
2017-12-16T01:33:00.047Z,96966.58
2017-12-16T01:35:39.498Z,96963.39
2017-12-16T01:38:18.685Z,96973.72
2017-12-16T01:40:46.463Z,96968.18
2017-12-16T01:43:13.922Z,96966.63
2017-12-16T01:45:41.380Z,96964.93
2017-12-16T01:48:09.090Z,96971.02
2017-12-16T01:50:37.529Z,96973.30
2017-12-16T01:53:04.985Z,96971.05
2017-12-16T01:55:32.945Z,96972.58
2017-12-16T01:58:00.396Z,96971.31
2017-12-16T02:00:27.840Z,96979.35
2017-12-16T02:02:55.683Z,96983.90
2017-12-16T02:05:23.138Z,96981.94
2017-12-16T02:07:50.595Z,96981.75
2017-12-16T02:10:18.669Z,96986.34
2017-12-16T02:12:46.121Z,96988.92
2017-12-16T02:15:13.569Z,96990.33
2017-12-16T02:17:41.250Z,96987.88
2017-12-16T02:20:08.713Z,96980.63
2017-12-16T02:22:36.170Z,96973.11
2017-12-16T02:25:03.897Z,96977.94
2017-12-16T02:27:31.349Z,96982.28
2017-12-16T02:29:58.813Z,96978.66
2017-12-16T02:32:26.734Z,96977.14
2017-12-16T02:34:54.188Z,96982.73
2017-12-16T02:37:21.663Z,96984.41
2017-12-16T02:39:49.734Z,96993.46
2017-12-16T02:42:17.197Z,96987.38
2017-12-16T02:44:44.656Z,96988.80
2017-12-16T02:47:12.345Z,96992.09
2017-12-16T02:49:39.814Z,96993.52
2017-12-16T02:52:08.651Z,96996.92
2017-12-16T02:54:36.325Z,96985.88
2017-12-16T02:57:03.796Z,96995.48
2017-12-16T02:59:31.287Z,96991.86
2017-12-16T03:01:59.008Z,96988.07
2017-12-16T03:04:26.482Z,96982.13
2017-12-16T03:06:53.946Z,96985.78
2017-12-16T03:09:21.708Z,96984.65
2017-12-16T03:11:49.157Z,96996.55
2017-12-16T03:14:16.616Z,96991.72
2017-12-16T03:16:44.395Z,96993.13
2017-12-16T03:19:11.861Z,96988.34
2017-12-16T03:21:39.315Z,96986.52
2017-12-16T03:24:07.081Z,96988.05
2017-12-16T03:26:34.534Z,96981.76
2017-12-16T03:29:01.979Z,96986.70
2017-12-16T03:31:29.777Z,96991.94
2017-12-16T03:33:57.238Z,96991.66
2017-12-16T03:36:24.694Z,96994.32
2017-12-16T03:38:52.761Z,96992.00
2017-12-16T03:41:20.228Z,96989.30
2017-12-16T03:43:47.682Z,96983.45
2017-12-16T03:46:15.442Z,96982.84
2017-12-16T03:48:42.902Z,96988.17
2017-12-16T03:51:10.354Z,96995.91
2017-12-16T03:53:39.052Z,96994.27
2017-12-16T03:56:06.502Z,96992.63
2017-12-16T03:58:33.960Z,96992.00
2017-12-16T04:01:02.057Z,96995.98
2017-12-16T04:03:29.520Z,96999.41
2017-12-16T04:05:57.054Z,97000.13
2017-12-16T04:08:24.891Z,97011.12
2017-12-16T04:10:52.362Z,97006.38
2017-12-16T04:13:19.830Z,97003.47
2017-12-16T04:15:47.729Z,96996.28
2017-12-16T04:18:15.188Z,97005.22
2017-12-16T04:20:42.645Z,97002.28
2017-12-16T04:23:10.410Z,97007.48
2017-12-16T04:25:37.874Z,97000.64
2017-12-16T04:28:05.337Z,97009.67
2017-12-16T04:30:33.149Z,97017.27
2017-12-16T04:33:00.609Z,97011.77
2017-12-16T04:35:28.073Z,97018.77
2017-12-16T04:37:55.789Z,97020.00
2017-12-16T04:40:23.257Z,97021.93
2017-12-16T04:42:50.727Z,97020.30
2017-12-16T04:45:18.786Z,97023.30
2017-12-16T04:47:46.242Z,97032.63
2017-12-16T04:50:13.708Z,97026.42
2017-12-16T04:52:41.476Z,97028.89
2017-12-16T04:55:09.625Z,97027.05
2017-12-16T04:57:37.089Z,97022.24
2017-12-16T05:00:05.082Z,97029.45
2017-12-16T05:02:32.545Z,97033.53
2017-12-16T05:05:00.012Z,97030.95
2017-12-16T05:07:27.924Z,97036.29
2017-12-16T05:09:55.389Z,97042.20
2017-12-16T05:12:22.850Z,97045.15
2017-12-16T05:14:50.457Z,97043.80
2017-12-16T05:17:17.918Z,97047.13
2017-12-16T05:19:45.381Z,97045.28
2017-12-16T05:22:13.440Z,97043.31
2017-12-16T05:24:40.894Z,97049.69
2017-12-16T05:27:08.353Z,97040.25
2017-12-16T05:29:36.156Z,97047.59
2017-12-16T05:32:03.617Z,97056.89
2017-12-16T05:34:31.082Z,97054.08
2017-12-16T05:36:59.436Z,97060.80
2017-12-16T05:39:26.902Z,97062.86
2017-12-16T05:41:54.465Z,97065.18
2017-12-16T05:44:22.429Z,97065.31
2017-12-16T05:46:49.889Z,97066.25
2017-12-16T05:49:17.340Z,97062.95
2017-12-16T05:51:45.122Z,97066.81
2017-12-16T05:54:12.582Z,97069.40
2017-12-16T05:56:41.010Z,97073.41
2017-12-16T05:59:08.734Z,97071.38
2017-12-16T06:01:36.193Z,97077.86
2017-12-16T06:04:03.650Z,97079.62
2017-12-16T06:06:31.410Z,97082.28
2017-12-16T06:08:58.873Z,97083.35
2017-12-16T06:11:26.325Z,97093.06
2017-12-16T06:13:55.322Z,97097.72
2017-12-16T06:16:22.769Z,97102.09
2017-12-16T06:18:50.226Z,97106.02
2017-12-16T06:21:18.025Z,97108.27
2017-12-16T06:23:45.478Z,97110.34
2017-12-16T06:26:12.932Z,97105.05
2017-12-16T06:28:40.719Z,97113.91
2017-12-16T06:31:08.171Z,97113.89
2017-12-16T06:33:35.633Z,97122.81
2017-12-16T06:36:03.384Z,97115.05
2017-12-16T06:38:30.850Z,97127.27
2017-12-16T06:40:58.296Z,97132.42
2017-12-16T06:43:26.031Z,97136.50
2017-12-16T06:45:54.094Z,97138.28
2017-12-16T06:48:21.555Z,97137.10
2017-12-16T06:50:49.376Z,97144.34
2017-12-16T06:53:16.845Z,97141.81
2017-12-16T06:55:44.306Z,97153.63
2017-12-16T06:58:13.297Z,97149.91
2017-12-16T07:00:40.769Z,97155.23
2017-12-16T07:03:08.225Z,97161.70
2017-12-16T07:05:35.982Z,97161.59
2017-12-16T07:08:03.446Z,97165.64
2017-12-16T07:10:30.901Z,97165.95
2017-12-16T07:12:58.656Z,97166.55
2017-12-16T07:15:26.113Z,97177.38
2017-12-16T07:17:54.217Z,97177.83
2017-12-16T07:20:21.976Z,97177.50
2017-12-16T07:22:49.437Z,97192.65
2017-12-16T07:25:16.908Z,97185.91
2017-12-16T07:27:44.958Z,97198.59
2017-12-16T07:30:12.410Z,97194.30
2017-12-16T07:32:39.861Z,97203.27
2017-12-16T07:35:07.601Z,97197.73
2017-12-16T07:37:35.059Z,97198.00
2017-12-16T07:40:02.517Z,97212.30
2017-12-16T07:42:30.334Z,97218.41
2017-12-16T07:44:58.359Z,97229.80
2017-12-16T07:47:25.812Z,97236.22
2017-12-16T07:49:54.403Z,97233.82
2017-12-16T07:52:21.864Z,97247.34
2017-12-16T07:54:49.328Z,97241.50
2017-12-16T07:57:17.240Z,97249.67
2017-12-16T07:59:46.018Z,97256.00
2017-12-16T08:02:13.472Z,97253.69
2017-12-16T08:04:41.464Z,97256.51
2017-12-16T08:07:08.924Z,97262.08
2017-12-16T08:09:36.380Z,97261.95
2017-12-16T08:12:04.221Z,97267.98
2017-12-16T08:14:31.631Z,97273.69
2017-12-16T08:16:59.096Z,97270.47
2017-12-16T08:19:26.837Z,97277.97
2017-12-16T08:21:54.298Z,97276.80
2017-12-16T08:24:21.765Z,97289.09
2017-12-16T08:26:49.521Z,97293.88
2017-12-16T08:29:16.987Z,97285.98
2017-12-16T08:31:44.449Z,97293.41
2017-12-16T08:34:12.226Z,97298.86
2017-12-16T08:36:39.685Z,97297.84
2017-12-16T08:39:07.137Z,97302.69
2017-12-16T08:41:34.924Z,97306.56
2017-12-16T08:44:02.385Z,97308.70
2017-12-16T08:46:29.891Z,97308.14
2017-12-16T08:48:57.589Z,97310.75
2017-12-16T08:51:25.046Z,97319.43
2017-12-16T08:53:52.524Z,97320.00
2017-12-16T08:56:20.905Z,97322.02
2017-12-16T08:58:48.368Z,97335.13
2017-12-16T09:01:16.222Z,97345.98
2017-12-16T09:10:28.818Z,97357.61
2017-12-16T09:12:56.294Z,97356.23
2017-12-16T09:15:23.759Z,97365.55
2017-12-16T09:17:51.781Z,97364.45
2017-12-16T09:20:19.255Z,97364.47
2017-12-16T09:22:46.714Z,97374.25
2017-12-16T09:25:14.765Z,97379.04
2017-12-16T09:27:42.221Z,97377.67
2017-12-16T09:30:09.672Z,97377.47
2017-12-16T09:32:37.470Z,97379.70
2017-12-16T09:35:04.921Z,97386.45
2017-12-16T09:37:32.374Z,97386.57
2017-12-16T09:40:00.154Z,97390.22
2017-12-16T09:42:27.621Z,97381.84
2017-12-16T09:44:55.103Z,97383.95
2017-12-16T09:47:22.888Z,97386.72
2017-12-16T09:49:50.349Z,97393.02
2017-12-16T09:52:17.809Z,97397.39
2017-12-16T09:54:45.832Z,97392.42
2017-12-16T09:57:13.294Z,97393.92
2017-12-16T09:59:40.772Z,97397.27
2017-12-16T10:02:09.132Z,97397.93
2017-12-16T10:04:36.594Z,97400.13
2017-12-16T10:07:04.054Z,97394.73
2017-12-16T10:09:32.125Z,97393.22
2017-12-16T10:11:59.584Z,97396.63
2017-12-16T10:14:27.045Z,97398.47
2017-12-16T10:16:54.799Z,97388.10
2017-12-16T10:19:22.256Z,97389.92
2017-12-16T10:21:49.705Z,97396.90
2017-12-16T10:24:17.494Z,97400.53
2017-12-16T10:26:44.938Z,97396.25
2017-12-16T10:29:12.388Z,97393.17
2017-12-16T10:31:40.496Z,97402.27
2017-12-16T10:34:07.950Z,97401.23
2017-12-16T10:36:35.398Z,97404.31
2017-12-16T10:39:03.174Z,97412.25
2017-12-16T10:41:30.648Z,97414.92
2017-12-16T10:43:58.117Z,97421.09
2017-12-16T10:46:25.979Z,97413.98
2017-12-16T10:48:53.389Z,97410.17
2017-12-16T10:51:20.837Z,97414.84
2017-12-16T10:53:48.854Z,97412.48
2017-12-16T10:56:16.322Z,97423.24
2017-12-16T10:58:43.779Z,97425.37
2017-12-16T11:01:11.541Z,97428.43
2017-12-16T11:03:39.153Z,97436.09
2017-12-16T11:06:06.620Z,97433.32
2017-12-16T11:08:34.282Z,97438.67
2017-12-16T11:11:01.734Z,97443.78
2017-12-16T11:13:29.205Z,97439.00
2017-12-16T11:15:57.221Z,97431.15
2017-12-16T11:18:24.677Z,97434.75
2017-12-16T11:20:52.132Z,97441.42
2017-12-16T11:23:19.945Z,97438.23
2017-12-16T11:25:47.414Z,97441.28
2017-12-16T11:28:14.865Z,97442.98
2017-12-16T11:30:42.438Z,97448.58
2017-12-16T11:33:09.902Z,97453.95
2017-12-16T11:35:37.358Z,97454.94
2017-12-16T11:38:04.937Z,97457.70
2017-12-16T11:40:32.386Z,97451.73
2017-12-16T11:42:59.875Z,97465.74
2017-12-16T11:45:27.515Z,97459.38
2017-12-16T11:47:54.962Z,97468.06
2017-12-16T11:50:22.406Z,97464.77
2017-12-16T11:52:50.356Z,97469.34
2017-12-16T11:55:17.853Z,97476.88
2017-12-16T11:57:45.307Z,97472.47
2017-12-16T12:00:13.018Z,97473.51
2017-12-16T12:02:40.479Z,97483.03
2017-12-16T12:05:08.549Z,97484.64
2017-12-16T12:07:36.301Z,97485.43
2017-12-16T12:10:03.751Z,97484.20
2017-12-16T12:12:31.237Z,97486.89
2017-12-16T12:14:59.055Z,97487.45
2017-12-16T12:17:26.541Z,97487.41
2017-12-16T12:19:54.104Z,97483.61
2017-12-16T12:22:22.032Z,97492.05
2017-12-16T12:24:49.477Z,97511.62
2017-12-16T12:27:16.922Z,97498.18
2017-12-16T12:29:44.818Z,97507.16
2017-12-16T12:32:12.269Z,97500.72
2017-12-16T12:34:39.791Z,97518.33
2017-12-16T12:37:07.523Z,97501.52
2017-12-16T12:39:34.987Z,97504.53
2017-12-16T12:42:02.437Z,97517.50
2017-12-16T12:44:31.025Z,97522.69
2017-12-16T12:46:58.492Z,97527.45
2017-12-16T12:49:25.950Z,97529.66
2017-12-16T12:51:54.001Z,97528.87
2017-12-16T12:54:21.441Z,97517.69
2017-12-16T12:56:48.906Z,97517.08
2017-12-16T12:59:16.674Z,97511.81
2017-12-16T13:01:44.122Z,97509.23
2017-12-16T13:04:11.569Z,97515.23
2017-12-16T13:06:40.596Z,97516.43
2017-12-16T13:09:08.046Z,97525.20
2017-12-16T13:11:35.488Z,97525.30
2017-12-16T13:14:03.301Z,97532.02
2017-12-16T13:16:30.749Z,97539.72
2017-12-16T13:18:58.195Z,97541.59
2017-12-16T13:21:26.273Z,97540.08
2017-12-16T13:23:53.730Z,97548.17
2017-12-16T13:26:21.173Z,97542.57
2017-12-16T13:28:49.061Z,97548.33
2017-12-16T13:31:16.501Z,97553.95
2017-12-16T13:33:43.949Z,97561.33
2017-12-16T13:36:11.960Z,97565.27
2017-12-16T13:38:39.406Z,97574.17
2017-12-16T13:41:06.865Z,97576.07
2017-12-16T13:43:34.641Z,97586.64
2017-12-16T13:46:02.093Z,97584.45
2017-12-16T13:48:29.552Z,97576.91
2017-12-16T13:50:57.329Z,97586.00
2017-12-16T13:53:24.774Z,97584.11
2017-12-16T13:55:52.224Z,97582.16
2017-12-16T13:58:19.971Z,97587.86
2017-12-16T14:00:47.427Z,97588.45
2017-12-16T14:03:14.888Z,97595.95
2017-12-16T14:05:42.700Z,97604.44
2017-12-16T14:08:11.168Z,97606.10
2017-12-16T14:10:38.607Z,97602.63
2017-12-16T14:13:06.618Z,97613.98
2017-12-16T14:15:34.078Z,97608.09
2017-12-16T14:18:02.206Z,97612.87
2017-12-16T14:20:30.251Z,97623.52
2017-12-16T14:22:57.717Z,97621.32
2017-12-16T14:25:25.186Z,97629.44
2017-12-16T14:27:52.889Z,97627.26
2017-12-16T14:30:20.338Z,97625.23
2017-12-16T14:32:47.793Z,97634.92
2017-12-16T14:35:15.922Z,97636.73
2017-12-16T14:37:43.394Z,97636.08
2017-12-16T14:40:10.845Z,97643.24
2017-12-16T14:42:38.618Z,97639.17
2017-12-16T14:45:06.071Z,97648.44
2017-12-16T14:47:33.526Z,97650.70
2017-12-16T14:50:01.321Z,97650.45
2017-12-16T14:52:28.778Z,97655.45
2017-12-16T14:54:56.229Z,97656.62
2017-12-16T14:57:23.974Z,97667.20
2017-12-16T14:59:51.447Z,97669.42
2017-12-16T15:02:18.908Z,97675.55
2017-12-16T15:04:46.657Z,97673.06
2017-12-16T15:07:14.116Z,97673.06
2017-12-16T15:09:41.568Z,97681.16
2017-12-16T15:12:09.346Z,97674.79
2017-12-16T15:14:36.796Z,97688.80
2017-12-16T15:17:04.254Z,97690.58
2017-12-16T15:19:32.037Z,97692.35
2017-12-16T15:21:59.522Z,97694.60
2017-12-16T15:24:27.033Z,97691.95
2017-12-16T15:26:54.734Z,97692.83
2017-12-16T15:29:22.185Z,97699.06
2017-12-16T15:31:49.638Z,97701.09
2017-12-16T15:34:17.413Z,97704.11
2017-12-16T15:36:44.861Z,97699.34
2017-12-16T15:39:12.321Z,97706.28
2017-12-16T15:41:40.102Z,97704.72
2017-12-16T15:44:07.561Z,97713.08
2017-12-16T15:46:35.017Z,97713.89
2017-12-16T15:49:02.781Z,97709.59
2017-12-16T15:51:30.238Z,97711.98
2017-12-16T15:53:57.699Z,97720.50
2017-12-16T15:56:25.523Z,97721.98
2017-12-16T15:58:52.994Z,97723.91
2017-12-16T16:01:20.461Z,97729.63
2017-12-16T16:03:48.234Z,97737.56
2017-12-16T16:06:16.653Z,97740.44
2017-12-16T16:08:44.970Z,97745.34
2017-12-16T16:11:13.002Z,97748.42
2017-12-16T16:13:40.462Z,97754.31
2017-12-16T16:16:08.709Z,97755.30
2017-12-16T16:18:36.914Z,97750.45
2017-12-16T16:21:06.506Z,97754.45
2017-12-16T16:23:33.961Z,97759.95
2017-12-16T16:26:01.741Z,97761.28
2017-12-16T16:28:29.217Z,97761.48
2017-12-16T16:30:57.197Z,97764.50
2017-12-16T16:33:24.887Z,97763.98
2017-12-16T16:35:52.356Z,97765.77
2017-12-16T16:38:19.812Z,97775.81
2017-12-16T16:40:48.749Z,97782.50
2017-12-16T16:43:16.401Z,97785.29
2017-12-16T16:45:45.076Z,97789.13
2017-12-16T16:48:13.009Z,97786.96
2017-12-16T16:50:40.609Z,97790.80
2017-12-16T16:53:08.062Z,97794.34
2017-12-16T16:55:36.569Z,97798.39
2017-12-16T16:58:04.918Z,97801.26
2017-12-16T17:00:32.490Z,97798.16
2017-12-16T17:03:00.585Z,97799.38
2017-12-16T17:05:28.042Z,97808.06
2017-12-16T17:07:56.371Z,97804.73
2017-12-16T17:10:24.312Z,97808.70
2017-12-16T17:12:51.778Z,97816.27
2017-12-16T17:15:19.272Z,97819.52
2017-12-16T17:17:48.505Z,97827.59
2017-12-16T17:20:16.086Z,97831.13
2017-12-16T17:22:44.948Z,97839.38
2017-12-16T17:25:13.025Z,97845.80
2017-12-16T17:27:40.481Z,97847.91
2017-12-16T17:30:07.939Z,97851.30
2017-12-16T17:32:35.662Z,97848.34
2017-12-16T17:35:03.138Z,97851.01
2017-12-16T17:37:30.594Z,97853.73
2017-12-16T17:39:58.396Z,97852.36
2017-12-16T17:42:25.847Z,97851.79
2017-12-16T17:44:53.335Z,97852.53
2017-12-16T17:47:21.129Z,97857.47
2017-12-16T17:49:48.581Z,97862.95
2017-12-16T17:52:16.038Z,97869.11
2017-12-16T17:54:43.817Z,97873.70
2017-12-16T17:57:11.288Z,97877.22
2017-12-16T17:59:38.757Z,97870.05
2017-12-16T18:02:06.533Z,97873.45
2017-12-16T18:04:33.990Z,97873.02
2017-12-16T18:07:01.452Z,97875.61
2017-12-16T18:09:29.205Z,97882.37
2017-12-16T18:11:56.671Z,97890.48
2017-12-16T18:14:24.129Z,97898.58
2017-12-16T18:16:51.897Z,97902.69
2017-12-16T18:19:19.362Z,97907.55
2017-12-16T18:21:46.833Z,97910.94
2017-12-16T18:24:15.474Z,97909.11
2017-12-16T18:26:44.758Z,97915.52
2017-12-16T18:29:12.675Z,97921.98
2017-12-16T18:31:41.191Z,97930.63
2017-12-16T18:34:08.658Z,97935.19
2017-12-16T18:36:36.124Z,97940.58
2017-12-16T18:39:03.941Z,97948.42
2017-12-16T18:41:31.400Z,97953.30
2017-12-16T18:43:58.890Z,97957.41
2017-12-16T18:46:27.045Z,97955.04
2017-12-16T18:48:54.510Z,97954.70
2017-12-16T18:51:22.835Z,97956.97
2017-12-16T18:53:50.853Z,97960.64
2017-12-16T18:56:18.321Z,97971.58
2017-12-16T18:58:45.787Z,97969.91
2017-12-16T19:01:13.849Z,97977.70
2017-12-16T19:03:41.626Z,97980.59
2017-12-16T19:06:09.081Z,97982.57
2017-12-16T19:08:36.863Z,97992.95
2017-12-16T19:11:04.405Z,97993.11
2017-12-16T19:13:31.880Z,97996.70
2017-12-16T19:15:59.829Z,98000.37
2017-12-16T19:18:27.337Z,98004.94
2017-12-16T19:20:54.795Z,98015.66
2017-12-16T19:23:23.106Z,98016.23
2017-12-16T19:25:51.601Z,98025.63
2017-12-16T19:28:19.064Z,98026.78
2017-12-16T19:30:46.748Z,98033.02
2017-12-16T19:33:14.215Z,98046.08
2017-12-16T19:35:42.544Z,98054.55
2017-12-16T19:38:10.337Z,98046.20
2017-12-16T19:40:38.457Z,98053.05
2017-12-16T19:43:06.031Z,98066.70
2017-12-16T19:45:33.962Z,98063.72
2017-12-16T19:48:01.686Z,98074.73
2017-12-16T19:50:29.149Z,98079.59
2017-12-16T19:52:56.950Z,98073.50
2017-12-16T19:55:24.770Z,98085.40
2017-12-16T19:57:52.234Z,98090.34
2017-12-16T20:00:20.616Z,98097.73
2017-12-16T20:02:48.077Z,98091.56
2017-12-16T20:05:15.793Z,98104.39
2017-12-16T20:07:43.909Z,98099.59
2017-12-16T20:10:11.374Z,98113.50
2017-12-16T20:12:38.834Z,98128.17
2017-12-16T20:15:07.618Z,98129.51
2017-12-16T20:17:35.072Z,98139.09
2017-12-16T20:20:02.728Z,98131.55
2017-12-16T20:22:30.782Z,98142.63
2017-12-16T20:24:58.239Z,98149.77
2017-12-16T20:27:26.381Z,98154.36
2017-12-16T20:29:54.037Z,98158.58
2017-12-16T20:32:21.509Z,98170.70
2017-12-16T20:34:48.981Z,98169.73
2017-12-16T20:37:16.756Z,98183.47
2017-12-16T20:39:44.214Z,98176.89
2017-12-16T20:42:11.680Z,98185.42
2017-12-16T20:44:39.265Z,98194.93
2017-12-16T20:47:06.747Z,98191.11
2017-12-16T20:49:34.242Z,98198.45
2017-12-16T20:52:02.138Z,98194.05
2017-12-16T20:54:29.599Z,98207.20
2017-12-16T20:56:57.072Z,98211.20
2017-12-16T20:59:24.825Z,98203.28
2017-12-16T21:01:52.287Z,98203.33
2017-12-16T21:04:19.757Z,98207.44
2017-12-16T21:06:47.505Z,98208.61
2017-12-16T21:09:14.965Z,98213.55
2017-12-16T21:11:42.424Z,98206.79
2017-12-16T21:14:10.199Z,98212.09
2017-12-16T21:16:37.670Z,98213.70
2017-12-16T21:19:05.143Z,98215.34
2017-12-16T21:21:32.877Z,98228.73
2017-12-16T21:24:00.353Z,98223.04
2017-12-16T21:26:27.833Z,98223.01
2017-12-16T21:28:56.455Z,98227.70
2017-12-16T21:31:23.928Z,98222.71
2017-12-16T21:33:51.390Z,98219.62
2017-12-16T21:36:19.181Z,98218.97
2017-12-16T21:38:46.645Z,98219.84
2017-12-16T21:41:14.124Z,98227.73
2017-12-16T21:43:41.866Z,98231.48
2017-12-16T21:46:09.325Z,98232.81
2017-12-16T21:48:36.794Z,98225.59
2017-12-16T21:51:04.529Z,98231.31
2017-12-16T21:53:31.993Z,98237.02
2017-12-16T21:55:59.444Z,98239.14
2017-12-16T21:58:27.233Z,98245.03
2017-12-16T22:00:54.688Z,98246.20
2017-12-16T22:03:22.158Z,98249.52
2017-12-16T22:05:49.922Z,98257.34
2017-12-16T22:08:17.379Z,98261.06
2017-12-16T22:10:44.835Z,98264.95
2017-12-16T22:13:12.613Z,98270.98
2017-12-16T22:15:40.079Z,98276.39
2017-12-16T22:18:07.536Z,98281.75
2017-12-16T22:20:35.617Z,98278.45
2017-12-16T22:23:03.075Z,98285.11
2017-12-16T22:25:30.532Z,98283.92
2017-12-16T22:27:58.263Z,98288.32
2017-12-16T22:30:25.833Z,98288.11
2017-12-16T22:32:53.296Z,98293.28
2017-12-16T22:35:21.133Z,98297.61
2017-12-16T22:37:48.590Z,98301.39
2017-12-16T22:40:16.043Z,98302.25
2017-12-16T22:42:43.985Z,98300.55
2017-12-16T22:45:11.452Z,98301.06
2017-12-16T22:47:38.911Z,98299.16
2017-12-16T22:50:06.664Z,98299.19
2017-12-16T22:52:34.132Z,98305.27
2017-12-16T22:55:01.590Z,98305.73
2017-12-16T22:57:29.348Z,98304.61
2017-12-16T22:59:56.802Z,98305.46
2017-12-16T23:02:24.246Z,98305.30
2017-12-16T23:04:52.081Z,98304.02
2017-12-16T23:07:19.540Z,98302.03
2017-12-16T23:09:47.010Z,98295.02
2017-12-16T23:12:15.333Z,98294.58
2017-12-16T23:14:42.797Z,98295.38
2017-12-16T23:17:10.250Z,98298.82
2017-12-16T23:19:37.973Z,98294.41
2017-12-16T23:22:05.429Z,98299.66
2017-12-16T23:24:32.904Z,98302.28
2017-12-16T23:27:00.714Z,98300.55
2017-12-16T23:29:28.172Z,98302.55
2017-12-16T23:31:56.014Z,98302.61
2017-12-16T23:34:24.018Z,98291.38
2017-12-16T23:36:51.476Z,98294.50
2017-12-16T23:39:18.942Z,98294.48
2017-12-16T23:41:47.010Z,98298.37
2017-12-16T23:44:14.471Z,98302.30
2017-12-16T23:46:41.927Z,98304.84
2017-12-16T23:49:09.695Z,98304.09
2017-12-16T23:51:37.163Z,98303.66
2017-12-16T23:54:04.621Z,98305.39
2017-12-16T23:56:32.680Z,98301.48
2017-12-16T23:59:00.133Z,98304.95
